createdAt,value
2022-10-09T00:00:56.269Z,0.00
2022-10-09T00:01:56.337Z,0.00
2022-10-09T00:02:56.249Z,0.00
2022-10-09T00:03:56.224Z,0.00
2022-10-09T00:04:56.325Z,0.00
2022-10-09T00:05:56.202Z,0.00
2022-10-09T00:06:56.237Z,0.00
2022-10-09T00:07:56.195Z,0.00
2022-10-09T00:08:56.171Z,0.00
2022-10-09T00:09:56.203Z,0.00
2022-10-09T00:10:56.335Z,0.00
2022-10-09T00:11:56.188Z,0.00
2022-10-09T00:12:56.130Z,0.00
2022-10-09T00:13:56.120Z,0.00
2022-10-09T00:14:56.126Z,0.00
2022-10-09T00:15:56.085Z,0.00
2022-10-09T00:16:56.147Z,0.00
2022-10-09T00:17:56.069Z,0.00
2022-10-09T00:18:56.070Z,0.00
2022-10-09T00:19:56.053Z,0.00
2022-10-09T00:20:56.050Z,0.00
2022-10-09T00:21:56.060Z,0.00
2022-10-09T00:22:56.014Z,0.00
2022-10-09T00:23:56.013Z,0.00
2022-10-09T00:24:55.989Z,0.00
2022-10-09T00:25:55.990Z,0.00
2022-10-09T00:26:56.026Z,0.00
2022-10-09T00:27:55.971Z,0.00
2022-10-09T00:28:56.032Z,0.00
2022-10-09T00:29:55.925Z,0.00
2022-10-09T00:30:56.000Z,0.00
2022-10-09T00:31:55.962Z,0.00
2022-10-09T00:32:55.907Z,0.00
2022-10-09T00:33:55.897Z,0.00
2022-10-09T00:34:55.897Z,0.00
2022-10-09T00:35:55.864Z,0.00
2022-10-09T00:36:55.908Z,0.00
2022-10-09T00:37:55.849Z,0.00
2022-10-09T00:38:55.832Z,0.00
2022-10-09T00:39:55.823Z,0.00
2022-10-09T00:40:55.804Z,0.00
2022-10-09T00:41:55.837Z,0.00
2022-10-09T00:42:55.774Z,0.00
2022-10-09T00:43:55.755Z,0.00
2022-10-09T00:44:55.755Z,0.00
2022-10-09T00:45:55.811Z,0.00
2022-10-09T00:46:55.792Z,0.00
2022-10-09T00:47:55.732Z,0.00
2022-10-09T00:48:55.723Z,0.00
2022-10-09T00:49:55.703Z,0.00
2022-10-09T00:50:55.706Z,0.00
2022-10-09T00:51:55.734Z,0.00
2022-10-09T00:52:55.669Z,0.00
2022-10-09T00:53:55.671Z,0.00
2022-10-09T00:54:55.646Z,0.00
2022-10-09T00:55:55.642Z,0.00
2022-10-09T00:56:55.681Z,0.00
2022-10-09T00:57:55.623Z,0.00
2022-10-09T00:58:55.610Z,0.00
2022-10-09T00:59:55.618Z,0.00
2022-10-09T01:00:55.715Z,0.00
2022-10-09T01:01:55.796Z,0.00
2022-10-09T01:02:55.594Z,0.00
2022-10-09T01:03:55.546Z,0.00
2022-10-09T01:04:55.552Z,0.00
2022-10-09T01:05:55.531Z,0.00
2022-10-09T01:06:55.581Z,0.00
2022-10-09T01:07:55.506Z,0.00
2022-10-09T01:08:55.511Z,0.00
2022-10-09T01:09:55.480Z,0.00
2022-10-09T01:10:55.482Z,0.00
2022-10-09T01:11:55.507Z,0.00
2022-10-09T01:12:55.439Z,0.00
2022-10-09T01:13:55.420Z,0.00
2022-10-09T01:14:55.421Z,0.00
2022-10-09T01:15:55.475Z,0.00
2022-10-09T01:16:55.459Z,0.00
2022-10-09T01:17:55.384Z,0.00
2022-10-09T01:18:55.387Z,0.00
2022-10-09T01:19:55.374Z,0.00
2022-10-09T01:20:55.366Z,0.00
2022-10-09T01:21:55.399Z,0.00
2022-10-09T01:22:55.352Z,0.00
2022-10-09T01:23:55.329Z,0.00
2022-10-09T01:24:55.318Z,0.00
2022-10-09T01:25:55.307Z,0.00
2022-10-09T01:26:55.368Z,0.00
2022-10-09T01:27:55.268Z,0.00
2022-10-09T01:28:55.270Z,0.00
2022-10-09T01:29:55.275Z,0.00
2022-10-09T01:30:55.276Z,0.00
2022-10-09T01:31:55.286Z,0.00
2022-10-09T01:32:55.226Z,0.00
2022-10-09T01:33:55.205Z,0.00
2022-10-09T01:34:55.203Z,0.00
2022-10-09T01:35:55.191Z,0.00
2022-10-09T01:36:55.245Z,0.00
2022-10-09T01:37:55.165Z,0.00
2022-10-09T01:38:55.170Z,0.00
2022-10-09T01:39:55.145Z,0.00
2022-10-09T01:40:55.124Z,0.00
2022-10-09T01:41:55.145Z,0.00
2022-10-09T01:42:55.087Z,0.00
2022-10-09T01:43:55.084Z,0.00
2022-10-09T01:44:55.085Z,0.00
2022-10-09T01:45:55.105Z,0.00
2022-10-09T01:46:55.147Z,0.00
2022-10-09T01:47:55.050Z,0.00
2022-10-09T01:48:55.048Z,0.00
2022-10-09T01:49:55.012Z,0.00
2022-10-09T01:50:55.029Z,0.00
2022-10-09T01:51:55.063Z,0.00
2022-10-09T01:52:55.001Z,0.00
2022-10-09T01:53:54.987Z,0.00
2022-10-09T01:54:54.963Z,0.00
2022-10-09T01:55:54.949Z,0.00
2022-10-09T01:56:55.007Z,0.00
2022-10-09T01:57:54.946Z,0.00
2022-10-09T01:58:54.922Z,0.00
2022-10-09T01:59:54.924Z,0.00
2022-10-09T02:00:54.902Z,0.00
2022-10-09T02:01:55.055Z,0.00
2022-10-09T02:02:54.929Z,0.00
2022-10-09T02:03:54.872Z,0.00
2022-10-09T02:04:54.862Z,0.00
2022-10-09T02:05:54.851Z,0.00
2022-10-09T02:06:54.879Z,0.00
2022-10-09T02:07:54.817Z,0.00
2022-10-09T02:08:54.806Z,0.00
2022-10-09T02:09:54.808Z,0.00
2022-10-09T02:10:54.782Z,0.00
2022-10-09T02:11:54.810Z,0.00
2022-10-09T02:12:54.760Z,0.00
2022-10-09T02:13:54.740Z,0.00
2022-10-09T02:14:54.738Z,0.00
2022-10-09T02:15:54.804Z,0.00
2022-10-09T02:16:54.765Z,0.00
2022-10-09T02:17:54.707Z,0.00
2022-10-09T02:18:54.707Z,0.00
2022-10-09T02:19:54.697Z,0.00
2022-10-09T02:20:54.699Z,0.00
2022-10-09T02:21:54.793Z,0.00
2022-10-09T02:22:54.638Z,0.00
2022-10-09T02:23:54.650Z,0.00
2022-10-09T02:24:54.626Z,0.00
2022-10-09T02:25:54.626Z,0.00
2022-10-09T02:26:54.657Z,0.00
2022-10-09T02:27:54.609Z,0.00
2022-10-09T02:28:54.614Z,0.00
2022-10-09T02:29:54.572Z,0.00
2022-10-09T02:30:54.584Z,0.00
2022-10-09T02:31:54.604Z,0.00
2022-10-09T02:32:54.595Z,0.00
2022-10-09T02:33:54.563Z,0.00
2022-10-09T02:34:54.522Z,0.00
2022-10-09T02:35:54.505Z,0.00
2022-10-09T02:36:54.570Z,0.00
2022-10-09T02:37:54.485Z,0.00
2022-10-09T02:38:54.465Z,0.00
2022-10-09T02:39:54.444Z,0.00
2022-10-09T02:40:54.445Z,0.00
2022-10-09T02:41:54.467Z,0.00
2022-10-09T02:42:54.410Z,0.00
2022-10-09T02:43:54.412Z,0.00
2022-10-09T02:44:54.382Z,0.00
2022-10-09T02:45:54.383Z,0.00
2022-10-09T02:46:54.417Z,0.00
2022-10-09T02:47:54.388Z,0.00
2022-10-09T02:48:54.370Z,0.00
2022-10-09T02:49:54.342Z,0.00
2022-10-09T02:50:54.333Z,0.00
2022-10-09T02:51:54.363Z,0.00
2022-10-09T02:52:54.312Z,0.00
2022-10-09T02:53:54.294Z,0.00
2022-10-09T02:54:54.282Z,0.00
2022-10-09T02:55:54.289Z,0.00
2022-10-09T02:56:54.321Z,0.00
2022-10-09T02:57:54.258Z,0.00
2022-10-09T02:58:54.240Z,0.00
2022-10-09T02:59:54.237Z,0.00
2022-10-09T03:00:54.225Z,0.00
2022-10-09T03:01:54.338Z,0.00
2022-10-09T03:02:54.338Z,0.00
2022-10-09T03:03:54.188Z,0.00
2022-10-09T03:04:54.167Z,0.00
2022-10-09T03:05:54.166Z,0.00
2022-10-09T03:06:54.204Z,0.00
2022-10-09T03:07:54.143Z,0.00
2022-10-09T03:08:54.126Z,0.00
2022-10-09T03:09:54.131Z,0.00
2022-10-09T03:10:54.102Z,0.00
2022-10-09T03:11:54.118Z,0.00
2022-10-09T03:12:54.086Z,0.00
2022-10-09T03:13:54.052Z,0.00
2022-10-09T03:14:54.053Z,0.00
2022-10-09T03:15:54.072Z,0.00
2022-10-09T03:16:54.069Z,0.00
2022-10-09T03:17:54.019Z,0.00
2022-10-09T03:18:54.033Z,0.00
2022-10-09T03:19:54.005Z,0.00
2022-10-09T03:20:53.983Z,0.00
2022-10-09T03:21:54.021Z,0.00
2022-10-09T03:22:53.957Z,0.00
2022-10-09T03:23:53.962Z,0.00
2022-10-09T03:24:53.936Z,0.00
2022-10-09T03:25:53.931Z,0.00
2022-10-09T03:26:53.963Z,0.00
2022-10-09T03:27:53.907Z,0.00
2022-10-09T03:28:53.942Z,0.00
2022-10-09T03:29:53.883Z,0.00
2022-10-09T03:30:54.023Z,0.00
2022-10-09T03:31:53.977Z,0.00
2022-10-09T03:32:53.871Z,0.00
2022-10-09T03:33:53.841Z,0.00
2022-10-09T03:34:53.827Z,0.00
2022-10-09T03:35:53.816Z,0.00
2022-10-09T03:36:53.848Z,0.00
2022-10-09T03:37:53.793Z,0.00
2022-10-09T03:38:53.778Z,0.00
2022-10-09T03:39:53.778Z,0.00
2022-10-09T03:40:53.758Z,0.00
2022-10-09T03:41:53.788Z,0.00
2022-10-09T03:42:53.736Z,0.00
2022-10-09T03:43:53.720Z,0.00
2022-10-09T03:44:53.711Z,0.00
2022-10-09T03:45:53.699Z,0.00
2022-10-09T03:46:53.773Z,0.00
2022-10-09T03:47:53.682Z,0.00
2022-10-09T03:48:53.661Z,0.00
2022-10-09T03:49:53.651Z,0.00
2022-10-09T03:50:53.638Z,0.00
2022-10-09T03:51:53.676Z,0.00
2022-10-09T03:52:53.618Z,0.00
2022-10-09T03:53:53.611Z,0.00
2022-10-09T03:54:53.600Z,0.00
2022-10-09T03:55:53.696Z,0.00
2022-10-09T03:56:53.628Z,0.00
2022-10-09T03:57:53.575Z,0.00
2022-10-09T03:58:53.563Z,0.00
2022-10-09T03:59:53.553Z,0.00
2022-10-09T04:00:53.584Z,0.00
2022-10-09T04:01:53.563Z,0.00
2022-10-09T04:02:53.766Z,0.00
2022-10-09T04:03:53.535Z,0.00
2022-10-09T04:04:53.493Z,0.00
2022-10-09T04:05:53.478Z,0.00
2022-10-09T04:06:53.507Z,0.00
2022-10-09T04:07:53.467Z,0.00
2022-10-09T04:08:53.443Z,0.00
2022-10-09T04:09:53.433Z,0.00
2022-10-09T04:10:53.421Z,0.00
2022-10-09T04:11:53.456Z,0.00
2022-10-09T04:12:53.404Z,0.00
2022-10-09T04:13:53.396Z,0.00
2022-10-09T04:14:53.377Z,0.00
2022-10-09T04:15:53.403Z,0.00
2022-10-09T04:16:53.392Z,0.00
2022-10-09T04:17:53.340Z,0.00
2022-10-09T04:18:53.324Z,0.00
2022-10-09T04:19:53.333Z,0.00
2022-10-09T04:20:53.340Z,0.00
2022-10-09T04:21:53.345Z,0.00
2022-10-09T04:22:53.289Z,0.00
2022-10-09T04:23:53.283Z,0.00
2022-10-09T04:24:53.276Z,0.00
2022-10-09T04:25:53.258Z,0.00
2022-10-09T04:26:53.291Z,0.00
2022-10-09T04:27:53.234Z,0.00
2022-10-09T04:28:53.228Z,0.00
2022-10-09T04:29:53.211Z,0.00
2022-10-09T04:30:53.195Z,0.00
2022-10-09T04:31:53.267Z,0.00
2022-10-09T04:32:53.171Z,0.00
2022-10-09T04:33:53.161Z,0.00
2022-10-09T04:34:53.151Z,0.00
2022-10-09T04:35:53.143Z,0.00
2022-10-09T04:36:53.170Z,0.00
2022-10-09T04:37:53.122Z,0.00
2022-10-09T04:38:53.116Z,0.00
2022-10-09T04:39:53.111Z,0.00
2022-10-09T04:40:53.081Z,0.00
2022-10-09T04:41:53.110Z,4.00
2022-10-09T04:42:53.066Z,4.00
2022-10-09T04:43:53.056Z,0.00
2022-10-09T04:44:53.046Z,4.00
2022-10-09T04:45:53.075Z,4.00
2022-10-09T04:46:53.060Z,4.00
2022-10-09T04:47:53.004Z,8.00
2022-10-09T04:48:52.994Z,8.00
2022-10-09T04:49:53.012Z,8.00
2022-10-09T04:50:52.978Z,8.00
2022-10-09T04:51:53.004Z,16.00
2022-10-09T04:52:52.957Z,16.00
2022-10-09T04:53:55.268Z,20.00
2022-10-09T04:54:53.924Z,24.00
2022-10-09T04:55:52.919Z,28.00
2022-10-09T04:56:52.955Z,32.00
2022-10-09T04:57:52.900Z,40.00
2022-10-09T04:58:52.884Z,48.00
2022-10-09T04:59:52.879Z,52.00
2022-10-09T05:00:52.883Z,68.00
2022-10-09T05:01:52.923Z,76.00
2022-10-09T05:02:52.843Z,88.00
2022-10-09T05:03:52.828Z,104.00
2022-10-09T05:04:52.813Z,124.00
2022-10-09T05:05:52.811Z,140.00
2022-10-09T05:06:52.835Z,160.00
2022-10-09T05:07:52.794Z,180.00
2022-10-09T05:08:52.772Z,204.00
2022-10-09T05:09:52.755Z,232.00
2022-10-09T05:10:52.749Z,260.00
2022-10-09T05:11:52.783Z,296.00
2022-10-09T05:12:52.728Z,328.00
2022-10-09T05:13:52.706Z,360.00
2022-10-09T05:14:52.709Z,400.00
2022-10-09T05:15:52.696Z,444.00
2022-10-09T05:17:12.517Z,480.00
2022-10-09T05:17:53.670Z,528.00
2022-10-09T05:18:52.655Z,572.00
2022-10-09T05:19:52.648Z,624.00
2022-10-09T05:20:52.636Z,676.00
2022-10-09T05:21:52.660Z,728.00
2022-10-09T05:22:52.884Z,784.00
2022-10-09T05:23:52.612Z,840.00
2022-10-09T05:24:52.598Z,896.00
2022-10-09T05:25:52.581Z,956.00
2022-10-09T05:26:52.613Z,1016.00
2022-10-09T05:27:52.600Z,1076.00
2022-10-09T05:28:52.610Z,1144.00
2022-10-09T05:29:52.543Z,1204.00
2022-10-09T05:30:52.527Z,1272.00
2022-10-09T05:31:52.603Z,1332.00
2022-10-09T05:32:52.609Z,1400.00
2022-10-09T05:33:52.498Z,1464.00
2022-10-09T05:34:52.486Z,1528.00
2022-10-09T05:35:52.468Z,1600.00
2022-10-09T05:36:52.505Z,1664.00
2022-10-09T05:37:52.450Z,1732.00
2022-10-09T05:38:52.451Z,1796.00
2022-10-09T05:39:52.426Z,1860.00
2022-10-09T05:40:52.411Z,1924.00
2022-10-09T05:41:52.448Z,1996.00
2022-10-09T05:42:52.394Z,2060.00
2022-10-09T05:43:52.375Z,2124.00
2022-10-09T05:44:52.371Z,2184.00
2022-10-09T05:45:52.454Z,2248.00
2022-10-09T05:46:52.386Z,2312.00
2022-10-09T05:47:52.331Z,2376.00
2022-10-09T05:48:52.331Z,2436.00
2022-10-09T05:49:52.306Z,2496.00
2022-10-09T05:50:52.305Z,2556.00
2022-10-09T05:51:52.322Z,2616.00
2022-10-09T05:52:52.302Z,2676.00
2022-10-09T05:53:52.254Z,2728.00
2022-10-09T05:54:52.256Z,2788.00
2022-10-09T05:55:52.234Z,2844.00
2022-10-09T05:56:52.272Z,2896.00
2022-10-09T05:57:52.210Z,2952.00
2022-10-09T05:58:52.211Z,3008.00
2022-10-09T05:59:52.195Z,3060.00
2022-10-09T06:00:52.372Z,3108.00
2022-10-09T06:01:52.280Z,3164.00
2022-10-09T06:02:52.594Z,3212.00
2022-10-09T06:03:52.151Z,3260.00
2022-10-09T06:04:52.131Z,3308.00
2022-10-09T06:05:52.120Z,3356.00
2022-10-09T06:06:52.159Z,3404.00
2022-10-09T06:07:52.111Z,3448.00
2022-10-09T06:08:52.089Z,3492.00
2022-10-09T06:09:52.074Z,3540.00
2022-10-09T06:10:52.074Z,3580.00
2022-10-09T06:11:52.099Z,3628.00
2022-10-09T06:12:52.259Z,3672.00
2022-10-09T06:13:52.054Z,3716.00
2022-10-09T06:14:52.025Z,3756.00
2022-10-09T06:15:52.001Z,3804.00
2022-10-09T06:16:52.085Z,3848.00
2022-10-09T06:17:51.989Z,3884.00
2022-10-09T06:18:51.979Z,3928.00
2022-10-09T06:19:51.969Z,3976.00
2022-10-09T06:20:51.958Z,4032.00
2022-10-09T06:21:52.004Z,4072.00
2022-10-09T06:22:51.985Z,4108.00
2022-10-09T06:23:51.918Z,4144.00
2022-10-09T06:24:51.921Z,4184.00
2022-10-09T06:25:51.889Z,4216.00
2022-10-09T06:26:51.933Z,4252.00
2022-10-09T06:27:51.873Z,4300.00
2022-10-09T06:28:51.894Z,4364.00
2022-10-09T06:29:51.864Z,4412.00
2022-10-09T06:30:51.879Z,4424.00
2022-10-09T06:31:51.876Z,4444.00
2022-10-09T06:32:52.168Z,4476.00
2022-10-09T06:33:51.807Z,4512.00
2022-10-09T06:34:51.801Z,4568.00
2022-10-09T06:35:51.779Z,4624.00
2022-10-09T06:36:51.811Z,4656.00
2022-10-09T06:37:51.751Z,4708.00
2022-10-09T06:38:51.758Z,4776.00
2022-10-09T06:39:51.739Z,4868.00
2022-10-09T06:40:51.740Z,4964.00
2022-10-09T06:41:51.760Z,5000.00
2022-10-09T06:42:52.047Z,5032.00
2022-10-09T06:43:51.700Z,5124.00
2022-10-09T06:44:51.688Z,5224.00
2022-10-09T06:45:51.736Z,5292.00
2022-10-09T06:46:51.705Z,5356.00
2022-10-09T06:47:51.645Z,5420.00
2022-10-09T06:48:51.644Z,5504.00
2022-10-09T06:49:51.625Z,5604.00
2022-10-09T06:50:51.623Z,5712.00
2022-10-09T06:51:51.639Z,5808.00
2022-10-09T06:52:51.884Z,5976.00
2022-10-09T06:53:51.583Z,6164.00
2022-10-09T06:54:51.563Z,6480.00
2022-10-09T06:55:51.549Z,7260.00
2022-10-09T06:56:51.614Z,8812.00
2022-10-09T06:57:51.555Z,13508.00
2022-10-09T06:58:51.539Z,22144.00
2022-10-09T06:59:51.513Z,28448.00
2022-10-09T07:00:51.514Z,29728.00
2022-10-09T07:01:51.610Z,19200.00
2022-10-09T07:02:51.915Z,30880.00
2022-10-09T07:03:51.475Z,28640.00
2022-10-09T07:04:51.458Z,27232.00
2022-10-09T07:05:51.446Z,31520.00
2022-10-09T07:06:51.479Z,33344.00
2022-10-09T07:07:51.429Z,31008.00
2022-10-09T07:08:51.404Z,31520.00
2022-10-09T07:09:51.410Z,32000.00
2022-10-09T07:10:51.400Z,32256.00
2022-10-09T07:11:51.416Z,32160.00
2022-10-09T07:12:51.695Z,32448.00
2022-10-09T07:13:51.357Z,33472.00
2022-10-09T07:14:51.350Z,32480.00
2022-10-09T07:15:51.411Z,32224.00
2022-10-09T07:16:51.371Z,36032.00
2022-10-09T07:17:51.314Z,34976.00
2022-10-09T07:18:51.313Z,32608.00
2022-10-09T07:19:51.284Z,32928.00
2022-10-09T07:20:51.286Z,33056.00
2022-10-09T07:21:51.306Z,31584.00
2022-10-09T07:22:51.651Z,30208.00
2022-10-09T07:23:51.238Z,32000.00
2022-10-09T07:24:51.225Z,32576.00
2022-10-09T07:25:51.219Z,32352.00
2022-10-09T07:26:51.250Z,31616.00
2022-10-09T07:27:51.189Z,30976.00
2022-10-09T07:28:51.230Z,30816.00
2022-10-09T07:29:51.171Z,31008.00
2022-10-09T07:30:51.194Z,31232.00
2022-10-09T07:31:51.203Z,30112.00
2022-10-09T07:32:51.526Z,29184.00
2022-10-09T07:33:51.136Z,28128.00
2022-10-09T07:34:51.127Z,27968.00
2022-10-09T07:35:51.140Z,31424.00
2022-10-09T07:36:51.141Z,34784.00
2022-10-09T07:37:51.088Z,36608.00
2022-10-09T07:38:51.069Z,35552.00
2022-10-09T07:39:51.049Z,35776.00
2022-10-09T07:40:51.064Z,35424.00
2022-10-09T07:41:51.077Z,34752.00
2022-10-09T07:42:51.329Z,33024.00
2022-10-09T07:43:51.010Z,29376.00
2022-10-09T07:44:51.009Z,28032.00
2022-10-09T07:45:51.024Z,28480.00
2022-10-09T07:46:51.051Z,30240.00
2022-10-09T07:47:50.969Z,30912.00
2022-10-09T07:48:50.965Z,30336.00
2022-10-09T07:49:50.941Z,30528.00
2022-10-09T07:50:50.938Z,30336.00
2022-10-09T07:51:50.962Z,33216.00
2022-10-09T07:52:51.603Z,34336.00
2022-10-09T07:53:50.908Z,33952.00
2022-10-09T07:54:50.891Z,34336.00
2022-10-09T07:55:50.889Z,33312.00
2022-10-09T07:56:50.911Z,34240.00
2022-10-09T07:57:50.851Z,34816.00
2022-10-09T07:58:50.846Z,37024.00
2022-10-09T07:59:50.830Z,34560.00
2022-10-09T08:00:50.811Z,33504.00
2022-10-09T08:01:50.887Z,32064.00
2022-10-09T08:02:51.124Z,29600.00
2022-10-09T08:03:50.789Z,28864.00
2022-10-09T08:04:50.784Z,29696.00
2022-10-09T08:05:50.762Z,31520.00
2022-10-09T08:06:50.805Z,32544.00
2022-10-09T08:07:50.740Z,32096.00
2022-10-09T08:08:50.734Z,33984.00
2022-10-09T08:09:50.734Z,35488.00
2022-10-09T08:10:50.714Z,34592.00
2022-10-09T08:11:50.743Z,33088.00
2022-10-09T08:12:51.338Z,34784.00
2022-10-09T08:13:50.678Z,34208.00
2022-10-09T08:14:50.667Z,34080.00
2022-10-09T08:15:50.721Z,34592.00
2022-10-09T08:16:50.685Z,38144.00
2022-10-09T08:17:50.628Z,38528.00
2022-10-09T08:18:50.623Z,38016.00
2022-10-09T08:19:50.638Z,39008.00
2022-10-09T08:20:50.607Z,37088.00
2022-10-09T08:21:50.634Z,34304.00
2022-10-09T08:22:51.064Z,32256.00
2022-10-09T08:23:50.549Z,31488.00
2022-10-09T08:24:50.550Z,30560.00
2022-10-09T08:25:50.543Z,30368.00
2022-10-09T08:26:50.573Z,29632.00
2022-10-09T08:27:50.515Z,29632.00
2022-10-09T08:28:50.552Z,29824.00
2022-10-09T08:29:50.477Z,31168.00
2022-10-09T08:30:50.512Z,32992.00
2022-10-09T08:31:50.521Z,34976.00
2022-10-09T08:32:51.007Z,35296.00
2022-10-09T08:33:50.455Z,35808.00
2022-10-09T08:34:50.433Z,36576.00
2022-10-09T08:35:50.434Z,37760.00
2022-10-09T08:36:50.458Z,37440.00
2022-10-09T08:37:50.409Z,37504.00
2022-10-09T08:38:50.398Z,36896.00
2022-10-09T08:39:50.382Z,37984.00
2022-10-09T08:40:52.900Z,38144.00
2022-10-09T08:41:51.398Z,37504.00
2022-10-09T08:42:50.895Z,37728.00
2022-10-09T08:43:50.331Z,37440.00
2022-10-09T08:44:50.328Z,36992.00
2022-10-09T08:45:50.309Z,36896.00
2022-10-09T08:46:50.387Z,37056.00
2022-10-09T08:47:50.289Z,38176.00
2022-10-09T08:48:50.289Z,39808.00
2022-10-09T08:49:50.264Z,40000.00
2022-10-09T08:50:50.263Z,40704.00
2022-10-09T08:51:50.280Z,40928.00
2022-10-09T08:52:50.414Z,41696.00
2022-10-09T08:53:50.220Z,43552.00
2022-10-09T08:54:50.210Z,42816.00
2022-10-09T08:55:50.208Z,42048.00
2022-10-09T08:56:50.244Z,41024.00
2022-10-09T08:57:50.181Z,37600.00
2022-10-09T08:58:50.160Z,35648.00
2022-10-09T08:59:50.165Z,35296.00
2022-10-09T09:00:50.156Z,36352.00
2022-10-09T09:01:50.206Z,38368.00
2022-10-09T09:02:50.391Z,37888.00
2022-10-09T09:03:50.094Z,34944.00
2022-10-09T09:04:54.541Z,35008.00
2022-10-09T09:05:50.095Z,35808.00
2022-10-09T09:06:50.140Z,35040.00
2022-10-09T09:07:50.060Z,28992.00
2022-10-09T09:08:50.072Z,29504.00
2022-10-09T09:09:50.032Z,28064.00
2022-10-09T09:10:50.024Z,26784.00
2022-10-09T09:11:50.062Z,29440.00
2022-10-09T09:12:50.340Z,37760.00
2022-10-09T09:13:49.995Z,39168.00
2022-10-09T09:14:49.978Z,40256.00
2022-10-09T09:15:50.063Z,41632.00
2022-10-09T09:16:50.012Z,28448.00
2022-10-09T09:17:49.957Z,19168.00
2022-10-09T09:18:49.965Z,15648.00
2022-10-09T09:19:49.928Z,17568.00
2022-10-09T09:20:49.941Z,19968.00
2022-10-09T09:21:49.951Z,19616.00
2022-10-09T09:22:50.435Z,22144.00
2022-10-09T09:23:49.889Z,21120.00
2022-10-09T09:24:49.892Z,22624.00
2022-10-09T09:25:49.879Z,24416.00
2022-10-09T09:26:49.900Z,25440.00
2022-10-09T09:27:49.849Z,30048.00
2022-10-09T09:28:49.898Z,27104.00
2022-10-09T09:29:49.831Z,22176.00
2022-10-09T09:30:49.859Z,26016.00
2022-10-09T09:31:49.849Z,29472.00
2022-10-09T09:32:50.253Z,29856.00
2022-10-09T09:33:49.775Z,23360.00
2022-10-09T09:34:49.770Z,20736.00
2022-10-09T09:35:49.767Z,32160.00
2022-10-09T09:36:49.804Z,34304.00
2022-10-09T09:37:49.733Z,35392.00
2022-10-09T09:39:35.150Z,36608.00
2022-10-09T09:40:50.713Z,38848.00
2022-10-09T09:41:49.735Z,33216.00
2022-10-09T09:42:49.987Z,30624.00
2022-10-09T09:43:49.658Z,34016.00
2022-10-09T09:44:49.644Z,33568.00
2022-10-09T09:45:49.621Z,32224.00
2022-10-09T09:46:49.802Z,21728.00
2022-10-09T09:47:49.937Z,16404.00
2022-10-09T09:48:49.610Z,26912.00
2022-10-09T09:49:49.620Z,28416.00
2022-10-09T09:50:59.870Z,23904.00
2022-10-09T09:51:50.623Z,23776.00
2022-10-09T09:52:49.556Z,32448.00
2022-10-09T09:53:49.571Z,41248.00
2022-10-09T09:54:49.552Z,44576.00
2022-10-09T09:55:49.540Z,36576.00
2022-10-09T09:57:50.889Z,25984.00
2022-10-09T09:58:49.506Z,32832.00
2022-10-09T09:59:49.486Z,40448.00
2022-10-09T10:00:49.513Z,36832.00
2022-10-09T10:01:49.554Z,32448.00
2022-10-09T10:02:49.696Z,34336.00
2022-10-09T10:03:49.437Z,37248.00
2022-10-09T10:04:49.419Z,44096.00
2022-10-09T10:05:49.431Z,46976.00
2022-10-09T10:06:49.443Z,48640.00
2022-10-09T10:07:49.400Z,51264.00
2022-10-09T10:08:49.375Z,48192.00
2022-10-09T10:09:49.381Z,33248.00
2022-10-09T10:10:49.373Z,22880.00
2022-10-09T10:11:49.399Z,22272.00
2022-10-09T10:12:49.481Z,16452.00
2022-10-09T10:13:49.330Z,23072.00
2022-10-09T10:14:49.310Z,38112.00
2022-10-09T10:15:49.368Z,46080.00
2022-10-09T10:16:49.331Z,39776.00
2022-10-09T10:17:49.287Z,34912.00
2022-10-09T10:18:49.275Z,33536.00
2022-10-09T10:19:49.258Z,40640.00
2022-10-09T10:20:49.251Z,45600.00
2022-10-09T10:21:49.271Z,48768.00
2022-10-09T10:22:49.518Z,49312.00
2022-10-09T10:23:49.261Z,47808.00
2022-10-09T10:24:49.202Z,49216.00
2022-10-09T10:25:49.209Z,46784.00
2022-10-09T10:26:49.179Z,43008.00
2022-10-09T10:27:49.417Z,37696.00
2022-10-09T10:28:49.194Z,41888.00
2022-10-09T10:29:49.187Z,15628.00
2022-10-09T10:30:49.159Z,38752.00
2022-10-09T10:31:49.129Z,51936.00
2022-10-09T10:32:49.168Z,52864.00
2022-10-09T10:33:49.135Z,55872.00
2022-10-09T10:34:49.074Z,63488.00
2022-10-09T10:35:49.079Z,68288.00
2022-10-09T10:36:49.061Z,73056.00
2022-10-09T10:37:49.240Z,57600.00
2022-10-09T10:38:49.065Z,55872.00
2022-10-09T10:39:49.055Z,62912.00
2022-10-09T10:40:49.027Z,63008.00
2022-10-09T10:41:49.044Z,47584.00
2022-10-09T10:42:49.067Z,23616.00
2022-10-09T10:43:49.070Z,57280.00
2022-10-09T10:44:48.992Z,60960.00
2022-10-09T10:45:48.974Z,62784.00
2022-10-09T10:46:49.122Z,64192.00
2022-10-09T10:47:49.217Z,64160.00
2022-10-09T10:48:48.947Z,12040.00
2022-10-09T10:49:48.939Z,11432.00
2022-10-09T10:50:48.932Z,11308.00
2022-10-09T10:51:48.894Z,11216.00
2022-10-09T10:52:49.461Z,11516.00
2022-10-09T10:53:48.891Z,11976.00
2022-10-09T10:54:48.871Z,12396.00
2022-10-09T10:55:48.897Z,12844.00
2022-10-09T10:56:48.864Z,13168.00
2022-10-09T10:57:49.118Z,13348.00
2022-10-09T10:58:48.824Z,14376.00
2022-10-09T10:59:48.830Z,43968.00
2022-10-09T11:00:48.849Z,88544.00
2022-10-09T11:01:48.792Z,94848.00
2022-10-09T11:02:48.946Z,102048.00
2022-10-09T11:03:48.843Z,106272.00
2022-10-09T11:04:48.753Z,109088.00
2022-10-09T11:05:48.735Z,104832.00
2022-10-09T11:06:48.732Z,104352.00
2022-10-09T11:07:48.783Z,102496.00
2022-10-09T11:08:48.733Z,97728.00
2022-10-09T11:09:48.722Z,91424.00
2022-10-09T11:10:48.685Z,87104.00
2022-10-09T11:11:48.713Z,85760.00
2022-10-09T11:12:48.800Z,84160.00
2022-10-09T11:13:48.672Z,85248.00
2022-10-09T11:14:48.691Z,83648.00
2022-10-09T11:15:48.661Z,80096.00
2022-10-09T11:16:48.791Z,80000.00
2022-10-09T11:17:48.654Z,81664.00
2022-10-09T11:18:48.613Z,82240.00
2022-10-09T11:19:48.619Z,81184.00
2022-10-09T11:20:48.593Z,82048.00
2022-10-09T11:21:48.631Z,82880.00
2022-10-09T11:22:48.786Z,86528.00
2022-10-09T11:23:48.563Z,88672.00
2022-10-09T11:24:48.552Z,90400.00
2022-10-09T11:25:48.531Z,92096.00
2022-10-09T11:26:48.567Z,98496.00
2022-10-09T11:27:48.503Z,104992.00
2022-10-09T11:28:48.590Z,111520.00
2022-10-09T11:29:48.490Z,113984.00
2022-10-09T11:30:48.483Z,110656.00
2022-10-09T11:31:48.520Z,109344.00
2022-10-09T11:32:48.458Z,107520.00
2022-10-09T11:33:48.438Z,101920.00
2022-10-09T11:34:48.475Z,95200.00
2022-10-09T11:35:48.406Z,88768.00
2022-10-09T11:36:48.457Z,85024.00
2022-10-09T11:37:48.679Z,79232.00
2022-10-09T11:38:48.389Z,64608.00
2022-10-09T11:39:48.392Z,64320.00
2022-10-09T11:40:48.371Z,61408.00
2022-10-09T11:41:48.428Z,56320.00
2022-10-09T11:42:48.347Z,55328.00
2022-10-09T11:43:48.353Z,53760.00
2022-10-09T11:44:48.400Z,50560.00
2022-10-09T11:45:48.363Z,47488.00
2022-10-09T11:46:48.374Z,43392.00
2022-10-09T11:47:48.658Z,40672.00
2022-10-09T11:48:48.297Z,39136.00
2022-10-09T11:49:48.267Z,37504.00
2022-10-09T11:50:48.298Z,36160.00
2022-10-09T11:51:48.310Z,35328.00
2022-10-09T11:52:48.230Z,34496.00
2022-10-09T11:53:48.236Z,34368.00
2022-10-09T11:54:48.219Z,33952.00
2022-10-09T11:55:48.226Z,33216.00
2022-10-09T11:56:48.246Z,32480.00
2022-10-09T11:57:48.586Z,32000.00
2022-10-09T11:58:48.177Z,31776.00
2022-10-09T11:59:48.209Z,31456.00
2022-10-09T12:00:48.243Z,30976.00
2022-10-09T12:01:48.200Z,30656.00
2022-10-09T12:02:48.218Z,30400.00
2022-10-09T12:03:48.110Z,30144.00
2022-10-09T12:04:54.916Z,29760.00
2022-10-09T12:05:49.090Z,29376.00
2022-10-09T12:06:48.118Z,29056.00
2022-10-09T12:07:48.086Z,28736.00
2022-10-09T12:08:48.075Z,28480.00
2022-10-09T12:09:48.048Z,28064.00
2022-10-09T12:10:48.048Z,27776.00
2022-10-09T12:11:48.087Z,27744.00
2022-10-09T12:12:48.372Z,27424.00
2022-10-09T12:13:48.016Z,27072.00
2022-10-09T12:14:48.022Z,26880.00
2022-10-09T12:15:47.991Z,26496.00
2022-10-09T12:16:48.112Z,26656.00
2022-10-09T12:17:47.971Z,26368.00
2022-10-09T12:18:47.956Z,26336.00
2022-10-09T12:19:47.962Z,26272.00
2022-10-09T12:20:47.931Z,26112.00
2022-10-09T12:21:47.970Z,26208.00
2022-10-09T12:23:07.248Z,26304.00
2022-10-09T12:23:48.917Z,26240.00
2022-10-09T12:24:47.887Z,26048.00
2022-10-09T12:25:47.898Z,26080.00